createdAt,value
2023-03-26T18:05:06.404Z,34.58
2023-03-26T18:06:06.319Z,35.06
2023-03-26T18:07:06.461Z,35.35
2023-03-26T18:08:06.307Z,35.44
2023-03-26T18:09:07.229Z,35.44
2023-03-26T18:10:06.298Z,36.02
2023-03-26T18:11:06.285Z,36.79
2023-03-26T18:12:06.279Z,37.27
2023-03-26T18:13:06.278Z,38.14
2023-03-26T18:14:06.271Z,38.72
2023-03-26T18:15:06.273Z,39.11
2023-03-26T18:16:06.324Z,39.49
2023-03-26T18:17:06.307Z,40.26
2023-03-26T18:18:06.256Z,38.91
2023-03-26T18:19:06.255Z,40.66
2023-03-26T18:20:06.255Z,39.49
2023-03-26T18:21:06.281Z,38.72
2023-03-26T18:22:06.257Z,39.70
2023-03-26T18:23:06.258Z,39.97
2023-03-26T18:24:06.252Z,40.86
2023-03-26T18:25:06.262Z,39.79
2023-03-26T18:26:06.254Z,39.99
2023-03-26T18:27:06.255Z,39.41
2023-03-26T18:28:06.252Z,39.39
2023-03-26T18:29:06.259Z,39.59
2023-03-26T18:30:06.255Z,38.93
2023-03-26T18:31:06.256Z,39.12
2023-03-26T18:32:06.305Z,39.11
2023-03-26T18:33:06.301Z,39.12
2023-03-26T18:34:06.260Z,38.83
2023-03-26T18:35:06.260Z,38.83
2023-03-26T18:36:06.259Z,38.81
2023-03-26T18:37:06.543Z,39.12
2023-03-26T18:38:06.267Z,38.64
2023-03-26T18:39:06.269Z,38.35
2023-03-26T18:40:06.265Z,38.45
2023-03-26T18:41:06.271Z,38.24
2023-03-26T18:42:06.322Z,37.77
2023-03-26T18:43:06.289Z,38.14
2023-03-26T18:44:06.279Z,37.66
2023-03-26T18:45:06.276Z,37.66
2023-03-26T18:46:06.330Z,37.58
2023-03-26T18:47:06.279Z,37.76
2023-03-26T18:48:06.316Z,37.37
2023-03-26T18:49:06.284Z,37.46
2023-03-26T18:50:06.288Z,37.46
2023-03-26T18:51:06.287Z,37.27
2023-03-26T18:52:06.289Z,36.99
2023-03-26T18:53:06.308Z,36.79
2023-03-26T18:54:06.293Z,36.60
2023-03-26T18:55:06.298Z,36.81
2023-03-26T18:56:06.294Z,36.21
2023-03-26T18:57:06.346Z,36.31
2023-03-26T18:58:06.308Z,36.43
2023-03-26T18:59:06.302Z,36.52
2023-03-26T19:00:06.301Z,36.21
2023-03-26T19:01:10.148Z,36.13
2023-03-26T19:02:06.608Z,36.23
2023-03-26T19:03:06.416Z,36.13
2023-03-26T19:04:06.310Z,36.04
2023-03-26T19:05:06.319Z,36.13
2023-03-26T19:06:06.316Z,35.94
2023-03-26T19:07:06.316Z,36.23
2023-03-26T19:08:06.341Z,35.85
2023-03-26T19:09:13.485Z,35.56
2023-03-26T19:10:06.326Z,35.85
2023-03-26T19:11:06.332Z,35.75
2023-03-26T19:12:06.332Z,35.56
2023-03-26T19:13:06.349Z,36.13
2023-03-26T19:14:06.345Z,36.52
2023-03-26T19:15:06.360Z,36.13
2023-03-26T19:16:06.357Z,36.23
2023-03-26T19:17:06.377Z,36.23
2023-03-26T19:18:06.399Z,35.36
2023-03-26T19:19:06.355Z,35.17
2023-03-26T19:20:06.346Z,36.33
2023-03-26T19:21:06.354Z,36.23
2023-03-26T19:22:06.353Z,35.94
2023-03-26T19:23:06.355Z,35.36
2023-03-26T19:24:06.360Z,35.27
2023-03-26T19:25:06.386Z,35.65
2023-03-26T19:26:06.365Z,35.56
2023-03-26T19:27:06.367Z,35.56
2023-03-26T19:28:06.373Z,35.46
2023-03-26T19:29:06.370Z,35.46
2023-03-26T19:30:06.373Z,35.44
2023-03-26T19:31:06.400Z,35.36
2023-03-26T19:32:06.396Z,35.36
2023-03-26T19:33:13.493Z,35.64
2023-03-26T19:34:06.389Z,35.73
2023-03-26T19:35:06.380Z,35.27
2023-03-26T19:36:06.398Z,35.08
2023-03-26T19:37:06.404Z,35.08
2023-03-26T19:38:06.393Z,34.67
2023-03-26T19:39:06.394Z,34.98
2023-03-26T19:40:06.404Z,34.59
2023-03-26T19:41:06.431Z,34.50
2023-03-26T19:42:06.572Z,34.69
2023-03-26T19:43:06.411Z,34.59
2023-03-26T19:44:06.414Z,35.08
2023-03-26T19:45:06.410Z,34.58
2023-03-26T19:46:06.435Z,34.78
2023-03-26T19:47:06.464Z,34.88
2023-03-26T19:48:15.056Z,34.50
2023-03-26T19:49:06.490Z,34.59
2023-03-26T19:50:06.431Z,34.19
2023-03-26T19:51:06.428Z,34.09
2023-03-26T19:52:06.475Z,34.19
2023-03-26T19:53:15.401Z,34.38
2023-03-26T19:54:06.435Z,33.91
2023-03-26T19:55:06.439Z,33.71
2023-03-26T19:56:06.543Z,33.81
2023-03-26T19:57:06.574Z,33.71
2023-03-26T19:58:06.446Z,33.71
2023-03-26T19:59:06.444Z,33.71
2023-03-26T20:00:06.447Z,33.53
2023-03-26T20:01:06.452Z,33.71
2023-03-26T20:02:07.405Z,33.71
2023-03-26T20:03:06.624Z,33.33
2023-03-26T20:04:06.521Z,33.63
2023-03-26T20:05:06.461Z,33.42
2023-03-26T20:06:06.463Z,33.61
2023-03-26T20:07:06.469Z,33.42
2023-03-26T20:08:08.845Z,33.51
2023-03-26T20:09:06.486Z,33.42
2023-03-26T20:10:06.503Z,33.51
2023-03-26T20:11:06.469Z,33.23
2023-03-26T20:12:06.487Z,33.23
2023-03-26T20:13:06.501Z,33.42
2023-03-26T20:14:06.482Z,33.42
2023-03-26T20:15:06.486Z,33.03
2023-03-26T20:16:06.591Z,33.03
2023-03-26T20:17:06.642Z,33.23
2023-03-26T20:18:06.546Z,32.75
2023-03-26T20:19:06.499Z,33.33
2023-03-26T20:20:06.509Z,33.23
2023-03-26T20:21:06.502Z,33.13
2023-03-26T20:22:07.985Z,33.33
2023-03-26T20:23:06.511Z,33.13
2023-03-26T20:24:06.518Z,32.75
2023-03-26T20:25:06.513Z,33.13
2023-03-26T20:26:06.516Z,32.84
2023-03-26T20:27:06.512Z,32.94
2023-03-26T20:28:06.518Z,33.03
2023-03-26T20:29:06.556Z,32.94
2023-03-26T20:30:07.233Z,32.56
2023-03-26T20:31:06.550Z,33.23
2023-03-26T20:32:06.517Z,32.56
2023-03-26T20:33:12.735Z,32.75
2023-03-26T20:34:06.525Z,32.94
2023-03-26T20:35:06.526Z,32.84
2023-03-26T20:36:06.536Z,32.76
2023-03-26T20:37:06.570Z,32.56
2023-03-26T20:38:06.538Z,33.13
2023-03-26T20:39:06.606Z,33.33
2023-03-26T20:40:06.538Z,33.13
2023-03-26T20:41:06.538Z,33.13
2023-03-26T20:42:06.844Z,33.61
2023-03-26T20:43:06.543Z,33.42
2023-03-26T20:44:06.553Z,33.03
2023-03-26T20:45:06.571Z,33.03
2023-03-26T20:46:06.556Z,33.03
2023-03-26T20:47:06.606Z,32.94
2023-03-26T20:48:06.621Z,33.23
2023-03-26T20:49:06.564Z,32.94
2023-03-26T20:50:06.558Z,33.13
2023-03-26T20:51:06.878Z,33.23
2023-03-26T20:52:06.563Z,32.84
2023-03-26T20:53:06.560Z,32.84
2023-03-26T20:54:06.613Z,32.84
2023-03-26T20:55:06.577Z,33.03
2023-03-26T20:56:07.413Z,32.75
2023-03-26T20:57:06.663Z,32.75
2023-03-26T20:58:06.598Z,33.03
2023-03-26T20:59:11.043Z,32.65
2023-03-26T21:00:06.579Z,32.56
2023-03-26T21:01:06.863Z,32.36
2023-03-26T21:02:06.627Z,32.26
2023-03-26T21:03:06.678Z,32.07
2023-03-26T21:04:06.631Z,31.78
2023-03-26T21:05:06.592Z,32.07
2023-03-26T21:06:06.598Z,31.98
2023-03-26T21:07:15.039Z,31.99
2023-03-26T21:08:06.602Z,31.78
2023-03-26T21:09:06.600Z,31.88
2023-03-26T21:10:06.609Z,31.98
2023-03-26T21:11:06.616Z,31.78
2023-03-26T21:12:06.605Z,31.78
2023-03-26T21:13:06.610Z,31.69
2023-03-26T21:14:06.614Z,31.78
2023-03-26T21:15:13.433Z,31.49
2023-03-26T21:16:06.661Z,31.59
2023-03-26T21:17:06.697Z,31.69
2023-03-26T21:18:06.720Z,31.59
2023-03-26T21:19:06.628Z,31.30
2023-03-26T21:20:06.641Z,31.40
2023-03-26T21:21:17.964Z,31.69
2023-03-26T21:22:06.782Z,31.40
2023-03-26T21:23:06.633Z,31.21
2023-03-26T21:24:06.639Z,31.49
2023-03-26T21:25:06.638Z,31.49
2023-03-26T21:26:06.648Z,31.30
2023-03-26T21:27:06.744Z,31.30
2023-03-26T21:28:06.641Z,31.49
2023-03-26T21:29:06.649Z,31.30
2023-03-26T21:30:06.648Z,31.30
2023-03-26T21:31:06.655Z,31.30
2023-03-26T21:32:06.806Z,31.21
2023-03-26T21:33:06.737Z,31.30
2023-03-26T21:34:06.658Z,31.40
2023-03-26T21:35:06.675Z,31.40
2023-03-26T21:36:06.776Z,31.40
2023-03-26T21:37:06.664Z,30.91
2023-03-26T21:38:06.671Z,31.49
2023-03-26T21:39:06.714Z,31.49
2023-03-26T21:40:06.675Z,31.40
2023-03-26T21:41:06.677Z,31.30
2023-03-26T21:42:06.676Z,31.49
2023-03-26T21:43:06.684Z,31.21
2023-03-26T21:44:06.683Z,31.40
2023-03-26T21:45:06.693Z,31.40
2023-03-26T21:46:06.741Z,31.21
2023-03-26T21:47:08.459Z,31.40
2023-03-26T21:48:06.766Z,30.91
2023-03-26T21:49:06.731Z,31.11
2023-03-26T21:50:06.693Z,30.82
2023-03-26T21:51:06.699Z,30.82
2023-03-26T21:52:06.758Z,30.91
2023-03-26T21:53:06.709Z,30.73
2023-03-26T21:54:06.706Z,31.01
2023-03-26T21:55:06.709Z,30.82
2023-03-26T21:56:06.708Z,30.34
2023-03-26T21:57:06.744Z,30.53
2023-03-26T21:58:06.721Z,30.34
2023-03-26T21:59:06.712Z,30.73
2023-03-26T22:00:06.725Z,30.34
2023-03-26T22:01:06.799Z,30.53
2023-03-26T22:02:06.723Z,30.63
2023-03-26T22:03:06.790Z,30.91
2023-03-26T22:04:06.732Z,30.82
2023-03-26T22:05:06.760Z,30.82
2023-03-26T22:06:06.731Z,31.11
2023-03-26T22:07:06.734Z,31.01
2023-03-26T22:08:06.765Z,30.91
2023-03-26T22:09:06.750Z,30.73
2023-03-26T22:10:06.738Z,30.63
2023-03-26T22:11:06.746Z,30.73
2023-03-26T22:12:06.758Z,30.73
2023-03-26T22:13:06.748Z,30.34
2023-03-26T22:14:06.747Z,30.34
2023-03-26T22:15:06.753Z,30.53
2023-03-26T22:16:06.813Z,30.43
2023-03-26T22:17:06.755Z,30.43
2023-03-26T22:18:06.782Z,30.63
2023-03-26T22:19:06.768Z,30.53
2023-03-26T22:20:06.771Z,30.43
2023-03-26T22:21:06.792Z,30.82
2023-03-26T22:22:07.026Z,30.24
2023-03-26T22:23:06.777Z,30.24
2023-03-26T22:24:06.775Z,30.63
2023-03-26T22:25:06.771Z,30.63
2023-03-26T22:26:06.793Z,30.73
2023-03-26T22:27:06.782Z,30.82
2023-03-26T22:28:06.792Z,30.24
2023-03-26T22:29:06.799Z,30.43
2023-03-26T22:30:06.791Z,30.63
2023-03-26T22:31:06.819Z,30.53
2023-03-26T22:32:06.854Z,30.73
2023-03-26T22:33:06.859Z,30.34
2023-03-26T22:34:06.800Z,30.43
2023-03-26T22:35:06.797Z,30.53
2023-03-26T22:36:06.807Z,30.63
2023-03-26T22:37:06.826Z,30.53
2023-03-26T22:38:06.807Z,30.63
2023-03-26T22:39:06.818Z,30.34
2023-03-26T22:40:06.812Z,30.53
2023-03-26T22:41:06.817Z,30.63
2023-03-26T22:42:06.968Z,30.43
2023-03-26T22:43:06.812Z,30.05
2023-03-26T22:44:18.954Z,30.53
2023-03-26T22:45:06.832Z,30.63
2023-03-26T22:46:06.848Z,30.43
2023-03-26T22:47:06.835Z,30.34
2023-03-26T22:48:06.871Z,30.34
2023-03-26T22:49:06.833Z,30.43
2023-03-26T22:50:06.829Z,29.95
2023-03-26T22:51:06.832Z,30.24
2023-03-26T22:52:06.831Z,30.15
2023-03-26T22:53:06.857Z,30.24
2023-03-26T22:54:06.841Z,30.24
2023-03-26T22:55:06.841Z,30.15
2023-03-26T22:56:06.844Z,30.63
2023-03-26T22:57:06.903Z,30.53
2023-03-26T22:58:06.866Z,30.24
2023-03-26T22:59:06.849Z,30.24
2023-03-26T23:00:06.846Z,30.15
2023-03-26T23:01:07.985Z,30.05
2023-03-26T23:02:06.944Z,30.15
2023-03-26T23:03:06.907Z,30.05
2023-03-26T23:04:06.882Z,30.24
2023-03-26T23:05:06.878Z,29.95
2023-03-26T23:06:06.903Z,30.05
2023-03-26T23:07:06.867Z,30.34
2023-03-26T23:08:06.868Z,30.24
2023-03-26T23:09:06.889Z,30.05
2023-03-26T23:10:06.872Z,30.34
2023-03-26T23:11:06.871Z,30.15
2023-03-26T23:12:06.871Z,30.24
2023-03-26T23:13:06.872Z,30.05
2023-03-26T23:14:06.880Z,30.15
2023-03-26T23:15:06.890Z,30.15
2023-03-26T23:16:06.918Z,30.05
2023-03-26T23:17:06.880Z,30.15
2023-03-26T23:18:06.940Z,30.24
2023-03-26T23:19:06.885Z,29.86
2023-03-26T23:20:06.889Z,29.86
2023-03-26T23:21:11.761Z,30.15
2023-03-26T23:22:06.898Z,30.53
2023-03-26T23:23:06.896Z,30.24
2023-03-26T23:24:06.916Z,30.15
2023-03-26T23:25:06.918Z,30.43
2023-03-26T23:26:06.970Z,30.05
2023-03-26T23:27:06.920Z,30.24
2023-03-26T23:28:06.906Z,30.43
2023-03-26T23:29:06.904Z,30.05
2023-03-26T23:30:06.917Z,30.24
2023-03-26T23:31:06.992Z,29.95
2023-03-26T23:32:23.687Z,30.15
2023-03-26T23:33:06.950Z,30.43
2023-03-26T23:34:06.936Z,30.34
2023-03-26T23:35:06.937Z,29.95
2023-03-26T23:36:07.472Z,30.05
2023-03-26T23:37:07.127Z,30.15
2023-03-26T23:38:06.928Z,30.24
2023-03-26T23:39:06.931Z,30.34
2023-03-26T23:40:06.935Z,30.05
2023-03-26T23:41:06.967Z,30.24
2023-03-26T23:42:06.937Z,30.15
2023-03-26T23:43:06.988Z,29.95
2023-03-26T23:44:06.977Z,30.15
2023-03-26T23:45:06.944Z,29.86
2023-03-26T23:46:06.990Z,30.15
2023-03-26T23:47:06.948Z,30.24
2023-03-26T23:48:07.022Z,30.34
2023-03-26T23:49:06.948Z,30.24
2023-03-26T23:50:06.972Z,30.24
2023-03-26T23:51:06.961Z,30.34
2023-03-26T23:52:06.953Z,30.24
2023-03-26T23:53:06.952Z,30.34
2023-03-26T23:54:06.958Z,30.43
2023-03-26T23:55:06.964Z,30.34
2023-03-26T23:56:06.963Z,30.34
2023-03-26T23:57:07.071Z,30.15
2023-03-26T23:58:06.968Z,30.15
2023-03-26T23:59:06.968Z,30.24
